Time;durP1;ratioP1;P1;durP2;ratioP2;P2;SDS_P1;SDS_P2;PMS_P1;PMS_P2;Temp;Humidity;BMP_temperature;BMP_pressure;BME280_temperature;BME280_humidity;BME280_pressure;Samples;Min_cycle;Max_cycle;Signal;HPM_P1;HPM_P2
2023/06/18 00:02:25;;;;;;;14.40;11.73;;;24.50;77.20;;;;;;5015018;28;20128;-70
2023/06/18 00:04:51;;;;;;;13.55;11.65;;;24.70;76.80;;;;;;5014803;28;20046;-70
2023/06/18 00:07:16;;;;;;;13.18;11.15;;;24.70;76.80;;;;;;5013991;28;20141;-61
2023/06/18 00:09:42;;;;;;;16.13;11.75;;;24.80;79.70;;;;;;5013870;28;20092;-66
2023/06/18 00:12:08;;;;;;;13.65;12.00;;;24.70;76.60;;;;;;5001788;28;20041;-68
2023/06/18 00:14:34;;;;;;;13.48;11.38;;;24.70;76.20;;;;;;5014509;28;20046;-65
2023/06/18 00:17:00;;;;;;;14.98;12.07;;;24.20;79.70;;;;;;5004562;28;20038;-67
2023/06/18 00:19:26;;;;;;;14.43;11.70;;;24.60;76.70;;;;;;5015142;28;20045;-66
2023/06/18 00:21:52;;;;;;;15.98;13.40;;;24.40;79.80;;;;;;5014252;28;20093;-66
2023/06/18 00:24:17;;;;;;;13.32;11.65;;;24.80;76.60;;;;;;5012881;28;20050;-64
2023/06/18 00:26:43;;;;;;;14.52;11.85;;;24.50;76.60;;;;;;5012179;28;20046;-72
2023/06/18 00:29:09;;;;;;;14.43;11.90;;;24.50;76.60;;;;;;5004173;28;20401;-62
2023/06/18 00:31:34;;;;;;;14.40;11.77;;;24.30;76.30;;;;;;5009756;28;20045;-66
2023/06/18 00:34:05;;;;;;;16.08;12.35;;;24.30;79.30;;;;;;5015625;28;20049;-66
2023/06/18 00:36:31;;;;;;;14.10;12.15;;;24.40;76.80;;;;;;5009444;28;20117;-62
2023/06/18 00:38:57;;;;;;;14.45;12.27;;;24.50;76.80;;;;;;5013131;28;20050;-72
2023/06/18 00:41:27;;;;;;;15.52;12.55;;;24.40;76.60;;;;;;5012877;28;20088;-69
2023/06/18 00:43:53;;;;;;;14.38;12.55;;;24.50;79.60;;;;;;5007207;28;20049;-72
2023/06/18 00:46:20;;;;;;;13.68;11.98;;;24.60;79.70;;;;;;5010793;28;20058;-71
2023/06/18 00:48:47;;;;;;;13.95;11.95;;;24.40;79.80;;;;;;5012587;28;20400;-73
2023/06/18 00:51:13;;;;;;;14.52;12.32;;;24.40;76.90;;;;;;5002300;28;20130;-72
2023/06/18 00:53:38;;;;;;;14.68;12.60;;;24.70;76.90;;;;;;4999120;28;20132;-65
2023/06/18 00:56:04;;;;;;;13.85;12.10;;;24.60;76.90;;;;;;5013614;28;20054;-74
2023/06/18 00:58:31;;;;;;;15.32;12.65;;;24.60;76.80;;;;;;5012062;28;20045;-68
2023/06/18 01:00:57;;;;;;;13.20;11.80;;;24.30;76.70;;;;;;5012174;28;20050;-72
2023/06/18 01:03:25;;;;;;;12.60;11.25;;;24.50;80.10;;;;;;5012013;28;20066;-61
2023/06/18 01:05:57;;;;;;;13.35;11.60;;;24.50;76.80;;;;;;5003004;28;20041;-72
2023/06/18 01:08:23;;;;;;;13.23;11.27;;;24.30;77.10;;;;;;5006784;28;20095;-66
2023/06/18 01:11:03;;;;;;;13.20;11.63;;;24.80;80.30;;;;;;5007847;28;20050;-64
2023/06/18 01:13:33;;;;;;;13.32;11.93;;;24.40;75.60;;;;;;5007022;28;20064;-64
2023/06/18 01:16:06;;;;;;;13.98;11.45;;;24.70;77.10;;;;;;4996110;28;20484;-62
2023/06/18 01:18:35;;;;;;;13.23;11.82;;;24.60;75.60;;;;;;5010303;28;20542;-70
2023/06/18 01:21:05;;;;;;;12.90;11.50;;;24.40;76.90;;;;;;5010619;28;20053;-71
2023/06/18 01:23:33;;;;;;;13.32;11.18;;;24.70;77.10;;;;;;4997492;28;20419;-70
2023/06/18 01:25:59;;;;;;;12.20;10.90;;;24.50;76.90;;;;;;4978941;28;20061;-64
2023/06/18 01:28:27;;;;;;;13.20;11.80;;;24.40;79.50;;;;;;4997243;28;20116;-74
2023/06/18 01:30:54;;;;;;;12.95;11.38;;;24.50;80.20;;;;;;5007416;28;20392;-60
2023/06/18 01:33:21;;;;;;;12.77;11.43;;;24.60;80.10;;;;;;5010889;28;20464;-61
2023/06/18 01:35:48;;;;;;;12.93;11.52;;;24.60;76.80;;;;;;5012517;28;20042;-61
2023/06/18 01:38:24;;;;;;;12.23;10.52;;;24.50;79.60;;;;;;5011487;28;20073;-64
2023/06/18 01:40:57;;;;;;;13.50;11.30;;;24.40;79.80;;;;;;5006142;28;20045;-60
2023/06/18 01:43:23;;;;;;;12.32;11.05;;;24.40;77.20;;;;;;5008450;28;20510;-71
2023/06/18 01:46:08;;;;;;;12.05;10.65;;;24.40;76.60;;;;;;5011140;28;20148;-68
2023/06/18 01:48:44;;;;;;;13.05;11.13;;;24.50;79.70;;;;;;4996537;28;20046;-69
2023/06/18 01:51:11;;;;;;;13.25;11.85;;;24.40;75.50;;;;;;5011294;28;20476;-68
2023/06/18 01:53:36;;;;;;;13.45;11.43;;;24.60;76.90;;;;;;5012255;28;20050;-70
2023/06/18 01:56:02;;;;;;;13.05;11.65;;;24.50;76.80;;;;;;4989349;28;20042;-70
2023/06/18 01:58:33;;;;;;;13.75;11.90;;;24.50;80.20;;;;;;4997335;28;20138;-67
2023/06/18 02:00:59;;;;;;;13.40;12.00;;;24.40;79.70;;;;;;5012156;28;20050;-72
2023/06/18 02:03:25;;;;;;;13.45;12.05;;;24.40;76.80;;;;;;5013386;28;20128;-64
2023/06/18 02:05:51;;;;;;;13.20;11.80;;;24.40;76.70;;;;;;5013583;28;20121;-72
2023/06/18 02:08:17;;;;;;;13.27;11.88;;;24.50;76.70;;;;;;5013356;28;20057;-66
2023/06/18 02:10:43;;;;;;;13.25;11.85;;;24.40;79.40;;;;;;4996320;28;20046;-63
2023/06/18 02:13:09;;;;;;;13.10;11.70;;;24.20;76.60;;;;;;5013517;28;20407;-68
2023/06/18 02:15:35;;;;;;;13.30;11.90;;;24.50;76.70;;;;;;5006523;28;20077;-63
2023/06/18 02:18:00;;;;;;;13.13;11.35;;;24.40;79.70;;;;;;5011927;28;20045;-67
2023/06/18 02:20:26;;;;;;;11.77;10.57;;;24.40;79.70;;;;;;5012386;28;20046;-74
2023/06/18 02:22:52;;;;;;;11.05;9.95;;;24.60;77.00;;;;;;5007194;28;20075;-70
2023/06/18 02:25:28;;;;;;;11.50;10.30;;;24.40;79.80;;;;;;5006752;28;20103;-68
2023/06/18 02:27:57;;;;;;;10.95;9.80;;;24.40;76.10;;;;;;5003744;28;20046;-63
2023/06/18 02:30:24;;;;;;;11.23;9.38;;;24.20;79.70;;;;;;5007106;28;20041;-69
2023/06/18 02:32:50;;;;;;;10.45;9.35;;;24.30;77.10;;;;;;5005730;28;20038;-70
2023/06/18 02:35:16;;;;;;;10.20;9.10;;;24.40;77.60;;;;;;5003386;28;20451;-66
2023/06/18 02:37:42;;;;;;;9.32;8.32;;;24.40;79.90;;;;;;5011320;28;20042;-72
2023/06/18 02:40:09;;;;;;;9.68;8.68;;;24.30;80.10;;;;;;5010687;28;20275;-67
2023/06/18 02:42:35;;;;;;;11.05;9.07;;;24.20;79.60;;;;;;5007263;28;20042;-68
2023/06/18 02:45:03;;;;;;;9.40;8.40;;;24.30;79.90;;;;;;5012382;28;20092;-63
2023/06/18 02:47:28;;;;;;;9.65;8.50;;;24.30;79.90;;;;;;5010147;28;20111;-65
2023/06/18 02:49:55;;;;;;;9.30;8.40;;;24.20;79.80;;;;;;5010185;28;20412;-74
2023/06/18 02:52:20;;;;;;;9.45;7.97;;;24.20;79.80;;;;;;5008994;28;20113;-65
2023/06/18 02:54:46;;;;;;;8.23;7.38;;;24.20;76.90;;;;;;5008927;28;20041;-71
2023/06/18 02:57:12;;;;;;;8.60;7.68;;;24.30;77.00;;;;;;5009712;28;20054;-64
2023/06/18 02:59:38;;;;;;;8.18;7.13;;;24.40;77.00;;;;;;5010431;28;20054;-62
2023/06/18 03:02:05;;;;;;;8.43;7.40;;;24.40;79.90;;;;;;5010388;28;20054;-69
2023/06/18 03:04:30;;;;;;;8.75;7.18;;;24.30;80.10;;;;;;5011467;28;20121;-69
2023/06/18 03:06:59;;;;;;;7.90;7.10;;;24.00;80.30;;;;;;5014107;28;20113;-61
2023/06/18 03:09:25;;;;;;;7.70;6.75;;;24.40;77.30;;;;;;5015296;28;20088;-65
2023/06/18 03:11:51;;;;;;;8.30;7.05;;;23.90;76.70;;;;;;5013694;28;20081;-71
2023/06/18 03:14:16;;;;;;;7.70;6.90;;;24.10;79.60;;;;;;5007641;28;20046;-60
2023/06/18 03:16:42;;;;;;;7.50;6.70;;;24.80;77.20;;;;;;5011853;28;20038;-66
2023/06/18 03:19:08;;;;;;;6.97;5.90;;;24.30;79.80;;;;;;5014405;28;20042;-66
2023/06/18 03:21:35;;;;;;;7.65;6.85;;;24.30;80.90;;;;;;5015168;28;20085;-61
2023/06/18 03:24:01;;;;;;;7.90;6.50;;;;;;;;;;5012772;28;20132;-67
2023/06/18 03:26:27;;;;;;;7.78;6.32;;;24.30;75.40;;;;;;5013543;28;20443;-73
2023/06/18 03:28:53;;;;;;;7.18;6.22;;;24.30;80.30;;;;;;5012174;28;20054;-73
2023/06/18 03:31:21;;;;;;;8.20;6.70;;;24.40;80.40;;;;;;5014177;28;20045;-64
2023/06/18 03:33:47;;;;;;;7.07;6.38;;;24.30;80.40;;;;;;5013311;28;20054;-73
2023/06/18 03:36:15;;;;;;;7.25;6.47;;;24.10;80.10;;;;;;5011146;28;20061;-74
2023/06/18 03:38:41;;;;;;;13.32;9.20;;;24.20;80.20;;;;;;5014416;28;20407;-62
2023/06/18 03:41:07;;;;;;;11.57;9.85;;;24.00;76.90;;;;;;5012191;28;20125;-62
2023/06/18 03:43:32;;;;;;;12.32;10.55;;;24.20;80.00;;;;;;5012014;28;20053;-66
2023/06/18 03:45:58;;;;;;;11.35;10.15;;;23.90;80.00;;;;;;5013605;28;20058;-61
2023/06/18 03:48:25;;;;;;;9.40;8.40;;;23.70;80.20;;;;;;5011879;28;20045;-61
2023/06/18 03:50:50;;;;;;;9.75;8.23;;;23.70;80.50;;;;;;5015287;28;20142;-66
2023/06/18 03:53:16;;;;;;;9.25;7.10;;;23.70;80.60;;;;;;5013200;28;20483;-65
2023/06/18 03:55:42;;;;;;;7.90;6.93;;;23.90;77.80;;;;;;5012199;28;20041;-70
2023/06/18 03:58:08;;;;;;;9.45;7.22;;;23.80;80.60;;;;;;5012417;28;20046;-69
2023/06/18 04:00:34;;;;;;;7.97;6.70;;;24.00;80.60;;;;;;5013855;28;20049;-71
2023/06/18 04:03:00;;;;;;;7.93;6.38;;;24.00;80.80;;;;;;5013229;28;20046;-70
2023/06/18 04:05:26;;;;;;;8.50;6.03;;;24.00;80.40;;;;;;5012004;28;20049;-65
2023/06/18 04:07:52;;;;;;;8.15;6.00;;;24.00;80.40;;;;;;5009039;28;20503;-65
2023/06/18 04:10:17;;;;;;;8.45;6.05;;;24.00;77.60;;;;;;5013173;28;20108;-61
2023/06/18 04:12:43;;;;;;;6.97;5.95;;;24.10;80.30;;;;;;5010884;28;20045;-61
2023/06/18 04:15:09;;;;;;;6.32;5.40;;;24.10;80.30;;;;;;5005426;28;20046;-70
2023/06/18 04:17:41;;;;;;;6.32;5.35;;;24.00;80.10;;;;;;5011222;28;20069;-61
2023/06/18 04:20:08;;;;;;;7.70;5.40;;;24.20;76.30;;;;;;5007289;28;20049;-64
2023/06/18 04:22:34;;;;;;;7.10;5.65;;;24.10;80.30;;;;;;5013484;28;21649;-62
2023/06/18 04:25:00;;;;;;;8.13;5.75;;;24.10;80.10;;;;;;5012008;28;20483;-60
2023/06/18 04:27:26;;;;;;;8.48;5.53;;;24.30;77.20;;;;;;5008862;28;20088;-61
2023/06/18 04:29:52;;;;;;;5.95;5.15;;;24.10;79.90;;;;;;5014023;28;20470;-63
2023/06/18 04:32:17;;;;;;;7.40;5.28;;;24.10;79.90;;;;;;5013870;28;20137;-69
2023/06/18 04:34:43;;;;;;;6.50;5.18;;;24.30;80.00;;;;;;5012803;28;20117;-68
2023/06/18 04:37:09;;;;;;;7.32;5.00;;;24.30;77.20;;;;;;5014041;28;20518;-61
2023/06/18 04:39:35;;;;;;;5.75;4.90;;;24.30;77.20;;;;;;5014408;28;20037;-62
2023/06/18 04:42:01;;;;;;;6.40;5.20;;;24.40;77.10;;;;;;5014432;28;20495;-68
2023/06/18 04:44:27;;;;;;;6.32;5.10;;;24.60;80.40;;;;;;5011310;28;20053;-70
2023/06/18 04:46:53;;;;;;;7.78;5.50;;;24.40;79.90;;;;;;5014287;28;20061;-64
2023/06/18 04:49:19;;;;;;;6.05;5.38;;;24.40;79.80;;;;;;5008645;28;20100;-65
2023/06/18 04:51:44;;;;;;;6.03;5.20;;;24.30;79.80;;;;;;5009894;28;20046;-61
2023/06/18 04:54:11;;;;;;;7.00;5.22;;;24.40;77.00;;;;;;5012833;28;20140;-63
2023/06/18 04:56:37;;;;;;;6.63;5.68;;;24.40;79.80;;;;;;5010643;28;20042;-73
2023/06/18 04:59:03;;;;;;;6.53;5.28;;;24.30;76.80;;;;;;5012858;28;20154;-66
2023/06/18 05:01:29;;;;;;;6.97;5.50;;;24.60;77.20;;;;;;5010404;28;20042;-63
2023/06/18 05:03:55;;;;;;;7.22;5.32;;;;;;;;;;5006280;28;20120;-71
2023/06/18 05:06:21;;;;;;;6.47;5.13;;;24.40;75.10;;;;;;5006755;28;20113;-71
2023/06/18 05:08:47;;;;;;;6.75;5.38;;;24.40;79.80;;;;;;5003949;28;20053;-74
2023/06/18 05:11:13;;;;;;;6.55;5.18;;;24.60;79.70;;;;;;5011937;28;20045;-69
2023/06/18 05:13:39;;;;;;;6.63;5.60;;;24.70;79.80;;;;;;5009326;28;20042;-73
2023/06/18 05:16:05;;;;;;;6.72;5.55;;;24.60;79.80;;;;;;5013317;28;20054;-73
2023/06/18 05:18:31;;;;;;;6.70;5.20;;;24.50;76.70;;;;;;5012709;28;20038;-60
2023/06/18 05:20:56;;;;;;;6.68;5.47;;;24.50;76.70;;;;;;5011356;28;20090;-68
2023/06/18 05:23:22;;;;;;;7.80;5.63;;;24.60;76.70;;;;;;5012772;28;20129;-68
2023/06/18 05:25:48;;;;;;;6.93;5.93;;;24.70;79.60;;;;;;5011612;28;20141;-71
2023/06/18 05:28:14;;;;;;;5.80;5.00;;;24.80;80.20;;;;;;5012083;28;20547;-62
2023/06/18 05:30:42;;;;;;;8.63;5.72;;;24.60;76.80;;;;;;5011528;28;20113;-65
2023/06/18 05:33:07;;;;;;;6.93;5.32;;;24.60;79.50;;;;;;5009650;28;20049;-60
2023/06/18 05:35:33;;;;;;;8.05;5.88;;;24.80;76.50;;;;;;5006712;28;20411;-70
2023/06/18 05:37:59;;;;;;;7.22;6.07;;;24.50;79.80;;;;;;5007278;28;20049;-61
2023/06/18 05:40:25;;;;;;;6.72;5.60;;;24.50;76.60;;;;;;5009451;28;20045;-75
2023/06/18 05:42:51;;;;;;;7.03;5.75;;;24.60;76.70;;;;;;5010480;28;20046;-68
2023/06/18 05:45:17;;;;;;;6.65;5.22;;;24.50;79.90;;;;;;5010329;28;20522;-60
2023/06/18 05:47:42;;;;;;;7.00;5.95;;;24.60;76.40;;;;;;5012261;28;20511;-61
2023/06/18 05:50:08;;;;;;;8.23;6.10;;;24.90;80.00;;;;;;5012605;28;20108;-61
2023/06/18 05:52:34;;;;;;;6.97;6.15;;;24.60;79.90;;;;;;5011350;28;20125;-60
2023/06/18 05:55:00;;;;;;;7.32;6.07;;;24.70;76.80;;;;;;5012688;28;20128;-60
2023/06/18 05:57:26;;;;;;;7.25;6.15;;;24.80;76.80;;;;;;5011718;28;20069;-66
2023/06/18 05:59:52;;;;;;;7.38;6.13;;;24.80;76.90;;;;;;5013242;28;20057;-71
2023/06/18 06:02:18;;;;;;;7.53;6.47;;;24.80;77.10;;;;;;5011374;28;20554;-71
2023/06/18 06:04:43;;;;;;;8.23;6.50;;;24.70;80.20;;;;;;5012455;28;20072;-71
2023/06/18 06:07:10;;;;;;;6.82;5.90;;;24.70;77.00;;;;;;5012512;28;20038;-71
2023/06/18 06:09:35;;;;;;;9.45;6.70;;;24.80;80.20;;;;;;5012603;28;20456;-69
2023/06/18 06:12:01;;;;;;;7.60;6.40;;;24.70;76.90;;;;;;5011995;28;20073;-74
2023/06/18 06:14:27;;;;;;;8.10;7.05;;;24.70;79.90;;;;;;5008887;28;20408;-74
2023/06/18 06:16:57;;;;;;;8.43;6.50;;;24.40;80.30;;;;;;5007882;28;20133;-69
2023/06/18 06:19:24;;;;;;;7.80;6.68;;;25.00;77.20;;;;;;5011767;28;20037;-75
2023/06/18 06:21:50;;;;;;;8.30;6.85;;;24.90;77.30;;;;;;5009445;28;20046;-69
2023/06/18 06:24:16;;;;;;;8.57;6.88;;;24.80;77.10;;;;;;5008374;28;20045;-69
2023/06/18 06:26:42;;;;;;;8.75;7.15;;;25.00;77.00;;;;;;5010864;28;20038;-69
2023/06/18 06:29:08;;;;;;;8.68;7.57;;;24.80;80.20;;;;;;5011086;28;20050;-70
2023/06/18 06:31:33;;;;;;;9.32;7.50;;;25.00;80.00;;;;;;5007923;28;20064;-65
2023/06/18 06:33:59;;;;;;;9.88;7.22;;;24.80;79.70;;;;;;5008001;28;20041;-71
2023/06/18 06:36:25;;;;;;;8.98;7.63;;;24.90;76.90;;;;;;5009726;28;20124;-72
2023/06/18 06:38:51;;;;;;;9.13;7.15;;;25.00;76.90;;;;;;5010117;28;20080;-71
2023/06/18 06:41:17;;;;;;;7.70;6.50;;;25.00;76.90;;;;;;5010995;28;20112;-69
2023/06/18 06:43:42;;;;;;;8.93;7.00;;;25.30;77.20;;;;;;5008179;28;20522;-72
2023/06/18 06:46:09;;;;;;;8.48;7.40;;;25.10;77.10;;;;;;5010292;28;20141;-74
2023/06/18 06:48:34;;;;;;;9.25;7.95;;;25.20;76.70;;;;;;5004869;28;20046;-64
2023/06/18 06:51:01;;;;;;;9.75;7.70;;;25.10;76.90;;;;;;5003515;28;20574;-74
2023/06/18 06:53:27;;;;;;;8.95;7.57;;;25.20;79.90;;;;;;5009299;28;20046;-71
2023/06/18 06:55:53;;;;;;;9.13;7.97;;;25.40;80.10;;;;;;5007179;28;20077;-69
2023/06/18 06:58:18;;;;;;;10.00;7.82;;;25.60;80.10;;;;;;5007921;28;20133;-70
2023/06/18 07:00:44;;;;;;;9.48;7.78;;;25.30;76.50;;;;;;5010637;28;20068;-71
2023/06/18 07:03:10;;;;;;;8.00;6.90;;;25.50;76.60;;;;;;5009698;28;20104;-73
2023/06/18 07:05:36;;;;;;;9.63;7.97;;;25.60;76.60;;;;;;5005061;28;20046;-70
2023/06/18 07:08:02;;;;;;;10.40;8.80;;;25.70;76.50;;;;;;5010378;28;20049;-72
2023/06/18 07:10:28;;;;;;;9.32;7.50;;;25.50;76.30;;;;;;5009364;28;20050;-68
2023/06/18 07:12:54;;;;;;;8.05;6.70;;;25.80;76.40;;;;;;5010348;28;20069;-70
2023/06/18 07:15:20;;;;;;;8.95;6.97;;;25.80;76.00;;;;;;5009831;28;20078;-71
2023/06/18 07:17:45;;;;;;;7.88;6.55;;;25.80;75.80;;;;;;5009110;28;20053;-68
2023/06/18 07:20:11;;;;;;;8.75;7.53;;;25.90;75.70;;;;;;5010611;28;20395;-74
2023/06/18 07:22:37;;;;;;;9.27;7.28;;;25.90;75.20;;;;;;5004354;28;20476;-66
2023/06/18 07:25:03;;;;;;;8.07;6.95;;;26.20;78.60;;;;;;5009974;28;20053;-72
2023/06/18 07:27:29;;;;;;;9.07;6.80;;;26.30;75.20;;;;;;5008064;28;20049;-70
2023/06/18 07:29:55;;;;;;;9.38;7.22;;;26.20;75.30;;;;;;5010206;28;20136;-68
2023/06/18 07:32:21;;;;;;;9.75;7.60;;;26.40;75.30;;;;;;5006029;28;20074;-68
2023/06/18 07:34:46;;;;;;;8.45;7.25;;;26.60;75.10;;;;;;5010554;28;20092;-68
2023/06/18 07:37:12;;;;;;;8.88;7.25;;;26.50;75.00;;;;;;5007319;28;20168;-71
2023/06/18 07:39:38;;;;;;;8.27;7.22;;;26.80;75.00;;;;;;5005611;28;20391;-70
2023/06/18 07:42:04;;;;;;;8.68;7.25;;;26.70;74.70;;;;;;5003241;28;20050;-71
2023/06/18 07:44:30;;;;;;;8.30;7.10;;;26.70;74.30;;;;;;5004403;28;20088;-72
2023/06/18 07:46:56;;;;;;;7.88;6.75;;;26.90;74.30;;;;;;5008323;28;20128;-68
2023/06/18 07:49:23;;;;;;;14.07;8.38;;;27.00;74.20;;;;;;5006757;28;20492;-70
2023/06/18 07:51:49;;;;;;;29.80;10.98;;;27.30;74.40;;;;;;5013099;28;20042;-65
2023/06/18 07:54:15;;;;;;;22.85;10.18;;;27.00;73.80;;;;;;5012022;28;20132;-60
2023/06/18 07:56:40;;;;;;;19.25;9.85;;;27.00;74.40;;;;;;5009830;28;20132;-65
2023/06/18 07:59:06;;;;;;;23.95;10.57;;;27.10;74.50;;;;;;5012103;28;20045;-62
2023/06/18 08:01:33;;;;;;;23.27;10.68;;;27.20;74.60;;;;;;5009254;28;20042;-61
2023/06/18 08:03:59;;;;;;;20.80;11.38;;;27.20;74.80;;;;;;5013492;28;20410;-61
2023/06/18 08:06:25;;;;;;;18.83;11.70;;;27.20;74.70;;;;;;5014731;28;20053;-61
2023/06/18 08:08:51;;;;;;;19.27;10.93;;;27.10;74.70;;;;;;5013338;28;20559;-63
2023/06/18 08:11:17;;;;;;;16.73;11.25;;;27.20;74.60;;;;;;5014216;28;20125;-66
2023/06/18 08:13:44;;;;;;;15.00;11.10;;;27.50;74.80;;;;;;5005502;28;20117;-68
2023/06/18 08:16:10;;;;;;;14.35;10.23;;;27.40;74.80;;;;;;5014499;28;20046;-61
2023/06/18 08:18:36;;;;;;;15.57;11.73;;;27.60;75.00;;;;;;5011845;28;20042;-63
2023/06/18 08:21:02;;;;;;;16.38;13.05;;;27.50;74.70;;;;;;5013933;28;20519;-65
2023/06/18 08:23:28;;;;;;;14.25;11.50;;;27.30;74.30;;;;;;5013547;28;20045;-60
2023/06/18 08:25:54;;;;;;;15.05;11.73;;;27.80;74.80;;;;;;5006129;28;20129;-68
2023/06/18 08:28:20;;;;;;;16.00;11.75;;;27.90;74.90;;;;;;5014475;28;20041;-64
2023/06/18 08:30:46;;;;;;;15.20;11.32;;;27.60;74.50;;;;;;5009207;28;20038;-64
2023/06/18 08:33:12;;;;;;;13.68;11.27;;;27.60;74.50;;;;;;5011560;28;20069;-65
2023/06/18 08:35:38;;;;;;;13.10;11.65;;;27.40;74.30;;;;;;5010935;28;20093;-60
2023/06/18 08:38:04;;;;;;;14.48;12.10;;;27.70;74.50;;;;;;5011612;28;20052;-60
2023/06/18 08:40:35;;;;;;;14.90;11.93;;;27.40;74.60;;;;;;5010652;28;20077;-68
2023/06/18 08:43:01;;;;;;;15.77;11.50;;;27.60;75.00;;;;;;5009499;28;20089;-60
2023/06/18 08:45:27;;;;;;;13.98;11.80;;;27.40;74.60;;;;;;5011190;28;20049;-61
2023/06/18 08:47:56;;;;;;;14.93;12.15;;;27.60;74.40;;;;;;5012214;28;20038;-75
2023/06/18 08:50:21;;;;;;;13.82;11.60;;;27.90;75.10;;;;;;5011245;28;20510;-68
2023/06/18 08:52:49;;;;;;;15.35;12.30;;;27.50;74.40;;;;;;5013217;28;20247;-60
2023/06/18 08:55:15;;;;;;;14.43;12.48;;;27.50;74.40;;;;;;5010613;28;20037;-69
2023/06/18 08:57:52;;;;;;;16.40;12.50;;;27.70;74.60;;;;;;5007380;28;20050;-68
2023/06/18 09:00:18;;;;;;;14.70;12.00;;;27.70;75.20;;;;;;5012485;28;20419;-65
2023/06/18 09:02:44;;;;;;;15.02;12.55;;;27.70;74.60;;;;;;5011726;28;20045;-72
2023/06/18 09:05:10;;;;;;;15.20;12.02;;;27.70;74.60;;;;;;4992414;28;20050;-68
2023/06/18 09:07:38;;;;;;;15.60;11.70;;;28.00;74.80;;;;;;4995024;28;20038;-69
2023/06/18 09:10:05;;;;;;;14.07;11.68;;;27.70;74.30;;;;;;5011408;28;20072;-69
2023/06/18 09:12:31;;;;;;;14.52;11.90;;;27.70;74.60;;;;;;5009094;28;20038;-66
2023/06/18 09:14:57;;;;;;;14.43;11.85;;;27.90;74.80;;;;;;5010704;28;20042;-67
2023/06/18 09:17:23;;;;;;;16.52;12.93;;;27.90;74.90;;;;;;5012782;28;20388;-68
2023/06/18 09:19:49;;;;;;;14.60;12.45;;;27.70;74.60;;;;;;5011182;28;20049;-65
2023/06/18 09:22:20;;;;;;;15.02;11.77;;;28.00;74.80;;;;;;5011603;28;20049;-66
2023/06/18 09:24:46;;;;;;;15.32;12.23;;;28.00;75.20;;;;;;5012108;28;20042;-61
2023/06/18 09:27:12;;;;;;;13.10;10.98;;;27.90;74.90;;;;;;5013221;28;20511;-63
2023/06/18 09:29:40;;;;;;;13.55;11.50;;;27.90;74.50;;;;;;5009289;28;20058;-61
2023/06/18 09:32:13;;;;;;;13.52;11.73;;;27.80;75.00;;;;;;5004626;28;20057;-70
2023/06/18 09:34:40;;;;;;;14.70;11.55;;;27.80;75.20;;;;;;5010040;28;20167;-64
2023/06/18 09:37:07;;;;;;;14.25;11.13;;;27.80;74.80;;;;;;5009453;28;20388;-67
2023/06/18 09:39:33;;;;;;;17.67;12.18;;;27.80;74.80;;;;;;5007008;28;20507;-61
2023/06/18 09:42:07;;;;;;;13.32;10.30;;;27.90;74.90;;;;;;5011613;28;20054;-67
2023/06/18 09:44:33;;;;;;;12.50;10.05;;;27.90;74.30;;;;;;5005251;28;20507;-62
2023/06/18 09:46:59;;;;;;;14.55;10.95;;;28.00;74.10;;;;;;5011740;28;20058;-60
2023/06/18 09:49:25;;;;;;;15.20;10.40;;;28.00;74.10;;;;;;5011099;28;20041;-75
2023/06/18 09:51:52;;;;;;;12.43;9.98;;;28.20;74.50;;;;;;5009935;28;20045;-71
2023/06/18 09:54:18;;;;;;;13.15;10.63;;;28.40;74.60;;;;;;5005965;28;20060;-66
2023/06/18 09:57:02;;;;;;;13.38;10.60;;;28.30;74.20;;;;;;5005301;28;20038;-64
2023/06/18 09:59:28;;;;;;;14.32;10.52;;;28.10;74.30;;;;;;5008774;28;20050;-65
2023/06/18 10:01:54;;;;;;;13.75;10.23;;;28.40;74.00;;;;;;5010933;28;20068;-64
2023/06/18 10:04:20;;;;;;;13.05;10.73;;;28.00;73.70;;;;;;5009850;28;20151;-61
2023/06/18 10:07:05;;;;;;;15.88;10.98;;;28.30;73.60;;;;;;5011859;28;20120;-62
2023/06/18 10:09:33;;;;;;;16.10;10.40;;;28.00;73.20;;;;;;5008479;28;20046;-64
2023/06/18 10:12:00;;;;;;;15.40;10.15;;;28.30;73.50;;;;;;5008140;28;20842;-63
2023/06/18 10:14:27;;;;;;;12.57;10.13;;;28.00;73.30;;;;;;5010478;28;20057;-63
2023/06/18 10:16:54;;;;;;;12.40;9.82;;;28.20;73.30;;;;;;5008259;28;20393;-68
2023/06/18 10:19:30;;;;;;;13.15;9.80;;;28.10;73.10;;;;;;5010509;28;20050;-61
2023/06/18 10:22:00;;;;;;;11.77;9.68;;;28.20;73.30;;;;;;5011447;28;20057;-61
2023/06/18 10:24:39;;;;;;;13.20;9.55;;;28.20;73.30;;;;;;5006528;28;20056;-62
2023/06/18 10:27:05;;;;;;;29.05;9.73;;;28.30;71.70;;;;;;5006791;28;20050;-63
2023/06/18 10:29:32;;;;;;;11.88;9.50;;;28.00;72.10;;;;;;5007019;28;20041;-62
2023/06/18 10:32:00;;;;;;;12.75;9.70;;;28.10;72.00;;;;;;5011358;28;20049;-63
2023/06/18 10:34:26;;;;;;;13.55;9.50;;;28.10;72.00;;;;;;5010593;28;20142;-62
2023/06/18 10:36:51;;;;;;;12.98;9.27;;;28.00;71.50;;;;;;5005862;28;20046;-61
2023/06/18 10:39:17;;;;;;;13.07;9.18;;;28.00;71.20;;;;;;5010351;28;20421;-64
2023/06/18 10:41:46;;;;;;;12.55;9.13;;;28.30;70.90;;;;;;5008491;28;20049;-61
2023/06/18 10:44:12;;;;;;;11.10;8.13;;;28.30;71.30;;;;;;5010964;28;20399;-60
2023/06/18 10:46:38;;;;;;;12.32;8.90;;;28.20;70.90;;;;;;5003844;28;20054;-63
2023/06/18 10:49:17;;;;;;;14.15;8.35;;;28.40;70.60;;;;;;5007405;28;20045;-61
2023/06/18 10:51:58;;;;;;;12.82;7.63;;;28.20;71.00;;;;;;5007080;28;20050;-63
2023/06/18 10:54:29;;;;;;;10.57;7.93;;;27.90;70.90;;;;;;5010756;28;20050;-61
2023/06/18 10:56:55;;;;;;;15.88;8.45;;;28.00;70.80;;;;;;5003805;28;20377;-64
2023/06/18 10:59:34;;;;;;;12.45;8.38;;;28.30;70.80;;;;;;5008207;28;20439;-60
2023/06/18 11:02:00;;;;;;;10.65;8.35;;;28.10;70.10;;;;;;5008412;28;20192;-60
2023/06/18 11:04:30;;;;;;;14.18;8.20;;;28.20;71.00;;;;;;5007540;28;20128;-77
2023/06/18 11:07:25;;;;;;;12.45;8.68;;;28.30;71.10;;;;;;5009349;28;20046;-78
2023/06/18 11:09:52;;;;;;;11.15;8.15;;;28.20;69.30;;;;;;5007677;28;20432;-60
2023/06/18 11:12:23;;;;;;;11.73;8.30;;;28.20;70.70;;;;;;5009388;28;20100;-62
2023/06/18 11:15:16;;;;;;;10.05;7.65;;;28.00;70.30;;;;;;5004088;28;20446;-66
2023/06/18 11:17:44;;;;;;;11.05;8.23;;;28.30;69.30;;;;;;5002790;28;20053;-64
2023/06/18 11:20:12;;;;;;;9.90;7.80;;;28.30;70.00;;;;;;5001304;28;20107;-63
2023/06/18 11:22:40;;;;;;;11.05;7.55;;;28.20;70.00;;;;;;5007008;28;20042;-60
2023/06/18 11:25:07;;;;;;;10.63;7.60;;;28.10;70.10;;;;;;5011453;28;20048;-70
2023/06/18 11:27:33;;;;;;;10.40;8.02;;;28.40;70.10;;;;;;5013089;28;20045;-62
2023/06/18 11:29:59;;;;;;;12.48;7.85;;;28.20;69.40;;;;;;5010517;28;20050;-60
2023/06/18 11:32:26;;;;;;;10.60;8.00;;;28.40;69.70;;;;;;5010559;28;20046;-62
2023/06/18 11:34:53;;;;;;;12.15;8.50;;;28.30;69.60;;;;;;5011223;28;20049;-68
2023/06/18 11:37:19;;;;;;;9.30;7.57;;;28.20;69.80;;;;;;5012818;28;20042;-70
2023/06/18 11:39:46;;;;;;;10.82;8.32;;;28.20;69.90;;;;;;5011305;28;20400;-67
2023/06/18 11:42:18;;;;;;;12.27;7.90;;;28.10;70.20;;;;;;5013619;28;20081;-69
2023/06/18 11:44:51;;;;;;;9.93;7.13;;;28.40;70.70;;;;;;5010507;28;20767;-70
2023/06/18 11:47:17;;;;;;;10.90;7.72;;;28.10;71.10;;;;;;5012275;28;20305;-65
2023/06/18 11:49:44;;;;;;;10.57;8.02;;;28.30;70.60;;;;;;5010997;28;20176;-64
2023/06/18 11:52:16;;;;;;;10.98;7.47;;;28.20;70.90;;;;;;5013038;28;20451;-66
2023/06/18 11:54:43;;;;;;;9.70;7.55;;;28.20;69.80;;;;;;5003003;28;20046;-70
2023/06/18 11:57:13;;;;;;;9.75;7.50;;;28.20;71.30;;;;;;5013880;28;20046;-60
2023/06/18 11:59:39;;;;;;;12.00;7.50;;;28.10;71.40;;;;;;5011602;28;20037;-60
2023/06/18 12:02:10;;;;;;;9.50;7.20;;;28.20;71.00;;;;;;5013639;28;20046;-60
2023/06/18 12:04:36;;;;;;;9.15;7.03;;;28.10;71.20;;;;;;5009674;28;20046;-63
2023/06/18 12:07:02;;;;;;;11.02;7.13;;;28.40;71.10;;;;;;5012807;28;20057;-64
2023/06/18 12:09:32;;;;;;;10.63;6.97;;;28.00;70.90;;;;;;5010726;28;20057;-68
2023/06/18 12:12:11;;;;;;;9.07;7.25;;;28.20;71.60;;;;;;5006097;28;20053;-69
2023/06/18 12:14:48;;;;;;;10.00;7.72;;;28.20;70.00;;;;;;5012279;28;20049;-62
2023/06/18 12:18:08;;;;;;;8.82;7.10;;;28.30;70.00;;;;;;5014928;28;20042;-60
2023/06/18 12:20:34;;;;;;;9.27;6.80;;;28.20;70.20;;;;;;5012573;28;20049;-62
2023/06/18 12:23:01;;;;;;;11.07;7.63;;;28.40;71.00;;;;;;4998975;28;20061;-64
2023/06/18 12:25:27;;;;;;;9.48;7.15;;;28.20;71.20;;;;;;4972385;28;20432;-60
2023/06/18 12:27:54;;;;;;;10.63;7.32;;;28.20;71.30;;;;;;4974377;28;20068;-60
2023/06/18 12:30:31;;;;;;;9.70;7.10;;;28.50;71.70;;;;;;4975007;28;20046;-60
2023/06/18 12:33:01;;;;;;;9.13;7.03;;;28.10;70.20;;;;;;4999281;28;20061;-67
2023/06/18 12:35:26;;;;;;;9.63;6.85;;;28.10;71.70;;;;;;4990369;28;20053;-61
2023/06/18 12:37:52;;;;;;;9.10;6.40;;;28.20;71.40;;;;;;4991563;28;20054;-64
2023/06/18 12:40:22;;;;;;;9.52;6.85;;;28.40;71.50;;;;;;4991730;28;20140;-61